createdAt,value
2024-05-09T00:00:42.702Z,51241.47
2024-05-09T00:03:11.917Z,51259.34
2024-05-09T00:05:46.151Z,51241.47
2024-05-09T00:08:13.587Z,51243.47
2024-05-09T00:10:41.537Z,51231.53
2024-05-09T00:13:10.586Z,51253.41
2024-05-09T00:15:38.612Z,51249.41
2024-05-09T00:18:07.689Z,51251.41
2024-05-09T00:20:39.463Z,51239.47
2024-05-09T00:23:13.654Z,51227.56
2024-05-09T00:25:45.026Z,51265.31
2024-05-09T00:28:13.956Z,51205.69
2024-05-09T00:30:41.450Z,51223.56
2024-05-09T00:33:10.337Z,51199.72
2024-05-09T00:35:39.184Z,51243.47
2024-05-09T00:38:06.727Z,51227.56
2024-05-09T00:40:43.167Z,51183.81
2024-05-09T00:43:15.525Z,51253.41
2024-05-09T00:45:44.072Z,51233.50
2024-05-09T00:48:15.229Z,51209.66
2024-05-09T00:50:46.930Z,51213.63
2024-05-09T00:53:17.404Z,51253.41
2024-05-09T00:55:45.165Z,51225.56
2024-05-09T00:58:15.591Z,51205.69
2024-05-09T01:00:43.312Z,51253.41
2024-05-09T01:03:12.707Z,51221.59
2024-05-09T01:05:42.680Z,51199.72
2024-05-09T01:08:11.555Z,51239.47
2024-05-09T01:10:40.801Z,51219.59
2024-05-09T01:13:10.284Z,51221.59
2024-05-09T01:15:37.488Z,51237.50
2024-05-09T01:18:10.580Z,51203.69
2024-05-09T01:20:42.428Z,51195.75
2024-05-09T01:23:14.175Z,51193.75
2024-05-09T01:25:44.034Z,51203.69
2024-05-09T01:28:11.301Z,51217.59
2024-05-09T01:30:38.824Z,51213.63
2024-05-09T01:33:08.943Z,51179.84
2024-05-09T01:35:39.103Z,51207.66
2024-05-09T01:38:07.786Z,51201.72
2024-05-09T01:40:38.762Z,51207.66
2024-05-09T01:43:09.571Z,51221.59
2024-05-09T01:45:38.946Z,51191.78
2024-05-09T01:48:07.130Z,51189.78
2024-05-09T01:50:39.493Z,51209.66
2024-05-09T01:53:10.891Z,51223.56
2024-05-09T01:55:38.780Z,51191.78
2024-05-09T01:58:06.279Z,51185.81
2024-05-09T02:00:39.343Z,51215.63
2024-05-09T02:03:16.303Z,51189.78
2024-05-09T02:05:51.975Z,51201.72
2024-05-09T02:08:21.174Z,51263.34
2024-05-09T02:10:50.714Z,51201.72
2024-05-09T02:13:18.330Z,51165.91
2024-05-09T02:15:45.636Z,51207.66
2024-05-09T02:18:13.458Z,51201.72
2024-05-09T02:20:43.229Z,51191.78
2024-05-09T02:23:11.534Z,51191.78
2024-05-09T02:25:39.004Z,51207.66
2024-05-09T02:28:06.775Z,51193.75
2024-05-09T02:30:39.745Z,51189.78
2024-05-09T02:33:12.116Z,51197.72
2024-05-09T02:35:41.943Z,51181.81
2024-05-09T02:38:10.056Z,51219.59
2024-05-09T02:40:39.282Z,51159.97
2024-05-09T02:43:10.594Z,51211.66
2024-05-09T02:45:39.951Z,51177.84
2024-05-09T02:48:10.956Z,51169.91
2024-05-09T02:50:40.734Z,51225.56
2024-05-09T02:53:11.807Z,51177.84
2024-05-09T02:55:40.184Z,51177.84
2024-05-09T02:58:08.002Z,51189.78
2024-05-09T03:00:39.661Z,51177.84
2024-05-09T03:03:12.517Z,51187.78
2024-05-09T03:05:42.648Z,51205.69
2024-05-09T03:08:10.209Z,51225.56
2024-05-09T03:10:38.910Z,51195.75
2024-05-09T03:13:14.025Z,51181.81
2024-05-09T03:15:42.894Z,51165.91
2024-05-09T03:18:11.118Z,51189.78
2024-05-09T03:20:39.231Z,51203.69
2024-05-09T03:23:09.280Z,51179.84
2024-05-09T03:25:38.093Z,51211.66
2024-05-09T03:28:05.973Z,51195.75
2024-05-09T03:30:40.240Z,51189.78
2024-05-09T03:33:12.716Z,51197.72
2024-05-09T03:35:41.020Z,51195.75
2024-05-09T03:38:08.381Z,51193.75
2024-05-09T03:40:35.888Z,51195.75
2024-05-09T03:43:03.018Z,51159.97
2024-05-09T03:45:30.062Z,51161.94
2024-05-09T03:47:59.073Z,51185.81
2024-05-09T03:50:33.592Z,51173.88
2024-05-09T03:53:02.913Z,51185.81
2024-05-09T03:55:31.113Z,51183.81
2024-05-09T03:57:58.501Z,51163.94
2024-05-09T04:00:34.182Z,51167.91
2024-05-09T04:03:08.518Z,51183.81
2024-05-09T04:05:40.747Z,51187.78
2024-05-09T04:08:09.858Z,51199.72
2024-05-09T04:10:37.323Z,51171.88
2024-05-09T04:13:04.737Z,51197.72
2024-05-09T04:15:32.323Z,51173.88
2024-05-09T04:18:00.192Z,51205.69
2024-05-09T04:20:36.344Z,51185.81
2024-05-09T04:23:08.936Z,51213.63
2024-05-09T04:25:37.250Z,51201.72
2024-05-09T04:28:05.386Z,51185.81
2024-05-09T04:30:38.581Z,51197.72
2024-05-09T04:33:11.162Z,51175.88
2024-05-09T04:35:42.605Z,51205.69
2024-05-09T04:38:10.693Z,51191.78
2024-05-09T04:40:38.465Z,51199.72
2024-05-09T04:43:07.182Z,51201.72
2024-05-09T04:45:35.436Z,51213.63
2024-05-09T04:48:03.363Z,51189.78
2024-05-09T04:50:36.780Z,51191.78
2024-05-09T04:53:10.550Z,51215.63
2024-05-09T04:55:39.398Z,51193.75
2024-05-09T04:58:10.674Z,51217.59
2024-05-09T05:00:40.474Z,51241.47
2024-05-09T05:03:13.397Z,51193.75
2024-05-09T05:05:44.778Z,51197.72
2024-05-09T05:08:18.516Z,51217.59
2024-05-09T05:10:47.442Z,51209.66
2024-05-09T05:13:17.213Z,51213.63
2024-05-09T05:15:47.299Z,51227.56
2024-05-09T05:18:15.920Z,51225.56
2024-05-09T05:20:43.753Z,51203.69
2024-05-09T05:23:16.792Z,51207.66
2024-05-09T05:25:44.933Z,51221.59
2024-05-09T05:28:12.074Z,51221.59
2024-05-09T05:30:41.191Z,51233.50
2024-05-09T05:33:15.563Z,51215.63
2024-05-09T05:35:43.105Z,51237.50
2024-05-09T05:38:11.234Z,51243.47
2024-05-09T05:40:39.671Z,51225.56
2024-05-09T05:43:15.558Z,51247.44
2024-05-09T05:45:43.831Z,51245.44
2024-05-09T05:48:11.359Z,51247.44
2024-05-09T05:50:42.641Z,51235.50
2024-05-09T05:53:10.723Z,51249.41
2024-05-09T05:55:40.598Z,51237.50
2024-05-09T05:58:12.193Z,51257.38
2024-05-09T06:00:41.901Z,51275.25
2024-05-09T06:03:10.996Z,51243.47
2024-05-09T06:05:43.928Z,51281.22
2024-05-09T06:08:14.741Z,51271.28
2024-05-09T06:10:42.568Z,51255.38
2024-05-09T06:13:11.585Z,51261.34
2024-05-09T06:15:43.505Z,51261.34
2024-05-09T06:18:12.356Z,51289.19
2024-05-09T06:20:43.313Z,51271.28
2024-05-09T06:23:11.681Z,51319.00
2024-05-09T06:25:40.347Z,51273.28
2024-05-09T06:28:07.661Z,51301.09
2024-05-09T06:30:40.403Z,51275.25
2024-05-09T06:33:15.780Z,51297.13
2024-05-09T06:35:45.851Z,51303.09
2024-05-09T06:38:13.242Z,51317.00
2024-05-09T06:40:42.792Z,51305.09
2024-05-09T06:43:17.628Z,51326.94
2024-05-09T06:45:48.666Z,51330.94
2024-05-09T06:48:19.739Z,51344.84
2024-05-09T06:50:47.671Z,51322.97
2024-05-09T06:53:15.882Z,51356.78
2024-05-09T06:55:43.201Z,51348.81
2024-05-09T06:58:10.380Z,51356.78
2024-05-09T07:00:40.250Z,51350.81
2024-05-09T07:03:16.744Z,51348.81
2024-05-09T07:05:47.719Z,51364.72
2024-05-09T07:08:16.387Z,51368.69
2024-05-09T07:10:44.095Z,51356.78
2024-05-09T07:13:13.438Z,51384.59
2024-05-09T07:15:41.729Z,51352.78
2024-05-09T07:18:20.483Z,51336.91
2024-05-09T07:20:49.695Z,51360.75
2024-05-09T07:23:18.692Z,51392.56
2024-05-09T07:25:46.339Z,51386.59
2024-05-09T07:28:19.265Z,51382.63
2024-05-09T07:30:48.505Z,51382.63
2024-05-09T07:33:22.067Z,51366.72
2024-05-09T07:35:50.664Z,51380.63
2024-05-09T07:38:17.881Z,51364.72
2024-05-09T07:40:45.499Z,51372.69
2024-05-09T07:43:14.109Z,51362.75
2024-05-09T07:45:50.712Z,51394.53
2024-05-09T07:52:37.581Z,51352.78
2024-05-09T07:53:49.343Z,51388.59
2024-05-09T07:56:21.905Z,51362.75
2024-05-09T07:58:52.635Z,51374.66
2024-05-09T08:01:21.039Z,51356.78
2024-05-09T08:03:50.007Z,51370.69
2024-05-09T08:06:17.412Z,51386.59
2024-05-09T08:08:47.271Z,51382.63
2024-05-09T08:11:14.694Z,51368.69
2024-05-09T08:13:41.850Z,51374.66
2024-05-09T08:16:09.868Z,51362.75
2024-05-09T08:18:37.397Z,51362.75
2024-05-09T08:21:05.198Z,51360.75
2024-05-09T08:23:32.388Z,51412.44
2024-05-09T08:25:59.876Z,51378.66
2024-05-09T08:28:28.077Z,51390.56
2024-05-09T08:30:55.402Z,51402.50
2024-05-09T08:33:22.826Z,51384.59
2024-05-09T08:35:50.103Z,51388.59
2024-05-09T08:38:17.386Z,51370.69
2024-05-09T08:40:44.745Z,51398.53
2024-05-09T08:43:13.405Z,51396.53
2024-05-09T08:45:44.351Z,51376.66
2024-05-09T08:48:15.122Z,51404.50
2024-05-09T08:50:44.509Z,51406.47
2024-05-09T08:53:12.526Z,51412.44
2024-05-09T08:55:43.287Z,51402.50
2024-05-09T08:58:18.489Z,51426.34
2024-05-09T09:00:46.969Z,51408.47
2024-05-09T09:03:19.653Z,51406.47
2024-05-09T09:06:02.282Z,51392.56
2024-05-09T09:08:29.556Z,51402.50
2024-05-09T09:10:58.964Z,51432.31
2024-05-09T09:13:29.206Z,51432.31
2024-05-09T09:16:00.029Z,51416.41
2024-05-09T09:18:28.446Z,51404.50
2024-05-09T09:20:56.392Z,51408.47
2024-05-09T09:23:23.528Z,51416.41
2024-05-09T09:25:50.961Z,51424.38
2024-05-09T09:28:18.196Z,51434.31
2024-05-09T09:30:46.060Z,51428.34
2024-05-09T09:33:13.465Z,51491.97
2024-05-09T09:35:42.505Z,51468.09
2024-05-09T09:38:10.821Z,51495.94
2024-05-09T09:40:46.719Z,51474.06
2024-05-09T09:43:22.498Z,51478.03
2024-05-09T09:45:52.192Z,51458.16
2024-05-09T09:48:23.751Z,51466.13
2024-05-09T09:50:55.537Z,51458.16
2024-05-09T09:53:23.952Z,51462.16
2024-05-09T09:55:53.370Z,51480.03
2024-05-09T09:58:27.534Z,51476.06
2024-05-09T10:00:55.081Z,51456.19
2024-05-09T10:03:22.532Z,51460.16
2024-05-09T10:05:53.346Z,51420.41
2024-05-09T10:08:24.229Z,51448.22
2024-05-09T10:10:51.806Z,51452.19
2024-05-09T10:13:20.116Z,51442.25
2024-05-09T10:15:53.186Z,51450.22
2024-05-09T10:18:34.259Z,51432.31
2024-05-09T10:21:01.963Z,51422.38
2024-05-09T10:23:32.700Z,51414.44
2024-05-09T10:26:03.230Z,51422.38
2024-05-09T10:28:42.663Z,51444.25
2024-05-09T10:31:16.303Z,51460.16
2024-05-09T10:33:51.027Z,51444.25
2024-05-09T10:36:26.700Z,51448.22
2024-05-09T10:38:55.193Z,51462.16
2024-05-09T10:41:23.830Z,51454.19
2024-05-09T10:43:52.457Z,51454.19
2024-05-09T10:46:20.372Z,51468.09
2024-05-09T10:48:50.006Z,51468.09
2024-05-09T10:51:19.947Z,51442.25
2024-05-09T10:53:48.435Z,51466.13
2024-05-09T10:56:17.035Z,51501.91
2024-05-09T10:58:44.742Z,51476.06
2024-05-09T11:01:13.738Z,51466.13
2024-05-09T11:03:41.657Z,51434.31
2024-05-09T11:06:11.521Z,51464.13
2024-05-09T11:08:39.609Z,51442.25
2024-05-09T11:11:08.727Z,51422.38
2024-05-09T11:13:40.746Z,51444.25
2024-05-09T11:16:21.373Z,51464.13
2024-05-09T11:18:58.965Z,51476.06
2024-05-09T11:21:26.845Z,51474.06
2024-05-09T11:23:54.653Z,51456.19
2024-05-09T11:26:28.145Z,51521.78
2024-05-09T11:28:55.774Z,51507.88
2024-05-09T11:31:26.868Z,51476.06
2024-05-09T11:34:03.020Z,51489.97
2024-05-09T11:36:53.894Z,51511.84
2024-05-09T11:39:25.277Z,51489.97
2024-05-09T11:41:52.569Z,51491.97
2024-05-09T11:44:26.748Z,51547.63
2024-05-09T11:46:57.158Z,51597.34
2024-05-09T11:49:26.774Z,51601.31
2024-05-09T11:51:54.363Z,51674.88
2024-05-09T11:54:21.589Z,51837.91
2024-05-09T11:56:48.952Z,51827.97
2024-05-09T11:59:16.465Z,51943.31
2024-05-09T12:01:43.974Z,51925.41
2024-05-09T12:04:11.630Z,52116.31
2024-05-09T12:06:39.752Z,52058.63
2024-05-09T12:09:07.176Z,52014.88
2024-05-09T12:11:40.761Z,52126.25
2024-05-09T12:14:08.264Z,52223.69
2024-05-09T12:16:38.050Z,52376.81
2024-05-09T12:19:05.380Z,52398.69
2024-05-09T12:21:32.642Z,52197.84
2024-05-09T12:24:00.534Z,52354.94
2024-05-09T12:26:28.543Z,52418.56
2024-05-09T12:28:55.662Z,52744.72
2024-05-09T12:31:23.112Z,52979.44
2024-05-09T12:33:50.408Z,53257.91
2024-05-09T12:36:20.969Z,53184.31
2024-05-09T12:38:50.007Z,52965.50
2024-05-09T12:41:17.156Z,52923.75
2024-05-09T12:43:44.350Z,52876.00
2024-05-09T12:46:11.731Z,53094.78
2024-05-09T12:48:39.304Z,53228.06
2024-05-09T12:51:06.557Z,53148.50
2024-05-09T12:53:33.645Z,53409.09
2024-05-09T12:56:02.967Z,53488.66
2024-05-09T12:58:31.658Z,53458.81
2024-05-09T13:00:58.921Z,53335.47
2024-05-09T13:03:26.257Z,52943.63
2024-05-09T13:05:54.121Z,52844.19
2024-05-09T13:08:21.628Z,52951.59
2024-05-09T13:10:50.212Z,53039.09
2024-05-09T13:13:17.601Z,52820.31
2024-05-09T13:15:44.761Z,52812.34
2024-05-09T13:18:12.159Z,53027.16
2024-05-09T13:20:39.527Z,52790.47
2024-05-09T13:23:08.480Z,52756.66
2024-05-09T13:25:37.918Z,53027.16
2024-05-09T13:28:07.352Z,52866.06
2024-05-09T13:30:40.311Z,52697.00
2024-05-09T13:33:14.191Z,52726.84
2024-05-09T13:35:49.085Z,52744.72
2024-05-09T13:38:21.973Z,52718.88
2024-05-09T13:40:50.348Z,52784.50
2024-05-09T13:43:18.539Z,52752.69
2024-05-09T13:45:46.657Z,53124.63
2024-05-09T13:48:14.247Z,52774.56
2024-05-09T13:50:41.871Z,52756.66
2024-05-09T13:53:09.349Z,52683.06
2024-05-09T13:55:38.999Z,52597.56
2024-05-09T13:58:07.206Z,52812.34
2024-05-09T14:00:44.237Z,52985.41
2024-05-09T14:03:18.393Z,53114.69
2024-05-09T14:05:47.707Z,53530.44
2024-05-09T14:08:15.817Z,53369.31
2024-05-09T14:10:47.146Z,53053.03
2024-05-09T14:13:15.289Z,53273.81
2024-05-09T14:15:42.766Z,53438.94
2024-05-09T14:18:13.154Z,53184.31
2024-05-09T14:20:42.035Z,53496.63
2024-05-09T14:23:09.398Z,53035.13
2024-05-09T14:25:39.775Z,52808.38
2024-05-09T14:28:09.990Z,53047.06
2024-05-09T14:30:38.827Z,53154.47
2024-05-09T14:33:08.177Z,52927.72
2024-05-09T14:35:40.002Z,53273.81
2024-05-09T14:38:09.939Z,53560.28
2024-05-09T14:40:42.402Z,53389.19
2024-05-09T14:43:13.551Z,53685.59
2024-05-09T14:45:42.639Z,53452.84
2024-05-09T14:48:11.212Z,53150.50
2024-05-09T14:50:40.425Z,53423.00
2024-05-09T14:53:12.763Z,52915.78
2024-05-09T14:55:42.788Z,52748.72
2024-05-09T14:58:12.164Z,52726.84
2024-05-09T15:00:47.691Z,52885.94
2024-05-09T15:03:22.207Z,52840.19
2024-05-09T15:05:50.934Z,52661.19
2024-05-09T15:08:19.578Z,52498.13
2024-05-09T15:10:49.881Z,52699.00
2024-05-09T15:13:18.369Z,52939.66
2024-05-09T15:15:45.715Z,53027.16
2024-05-09T15:18:14.660Z,53003.28
2024-05-09T15:20:44.086Z,53122.66
2024-05-09T15:23:11.291Z,53094.78
2024-05-09T15:25:38.438Z,53186.28
2024-05-09T15:28:08.115Z,52768.59
2024-05-09T15:30:36.162Z,52681.09
2024-05-09T15:33:04.256Z,52472.25
2024-05-09T15:35:32.002Z,52736.78
2024-05-09T15:38:00.166Z,52657.22
2024-05-09T15:40:36.087Z,52700.97
2024-05-09T15:43:08.276Z,52466.31
2024-05-09T15:45:36.242Z,52394.72
2024-05-09T15:48:05.583Z,52470.28
2024-05-09T15:50:38.691Z,52506.06
2024-05-09T15:53:10.105Z,52506.06
2024-05-09T15:55:38.582Z,52744.72
2024-05-09T15:58:07.044Z,52756.66
2024-05-09T16:00:39.376Z,52655.22
2024-05-09T16:03:11.323Z,52428.50
2024-05-09T16:05:41.038Z,52418.56
2024-05-09T16:08:08.727Z,52565.75
2024-05-09T16:10:42.406Z,52661.19
2024-05-09T16:13:11.643Z,52613.47
2024-05-09T16:15:38.986Z,52504.09
2024-05-09T16:18:06.760Z,52343.00
2024-05-09T16:20:39.628Z,52458.34
2024-05-09T16:23:09.327Z,52585.63
2024-05-09T16:25:40.255Z,52458.34
2024-05-09T16:28:10.274Z,52255.50
2024-05-09T16:30:39.926Z,52305.22
2024-05-09T16:33:08.599Z,52227.66
2024-05-09T16:35:37.090Z,52275.38
2024-05-09T16:38:04.901Z,52168.00
2024-05-09T16:40:38.659Z,52179.94
2024-05-09T16:43:10.017Z,52225.66
2024-05-09T16:45:44.193Z,52205.78
2024-05-09T16:48:13.416Z,52146.13
2024-05-09T16:50:40.732Z,52116.31
2024-05-09T16:53:08.694Z,52201.81
2024-05-09T16:55:36.543Z,52263.47
2024-05-09T16:58:04.951Z,52042.72
2024-05-09T17:00:40.190Z,51997.00
2024-05-09T17:03:14.018Z,52050.69
2024-05-09T17:05:43.082Z,52082.50
2024-05-09T17:08:10.778Z,52030.78
2024-05-09T17:10:38.247Z,52154.09
2024-05-09T17:13:07.631Z,52140.16
2024-05-09T17:15:37.255Z,52084.50
2024-05-09T17:26:02.847Z,51756.41
2024-05-09T17:28:30.207Z,51788.22
2024-05-09T17:30:58.509Z,51742.47
2024-05-09T17:33:25.887Z,51708.69
2024-05-09T17:35:53.129Z,51684.81
2024-05-09T17:38:22.870Z,51666.94
2024-05-09T17:40:52.221Z,51722.59
2024-05-09T17:43:19.617Z,51716.63
2024-05-09T17:45:47.147Z,51722.59
2024-05-09T17:48:15.161Z,51658.97
2024-05-09T17:50:42.513Z,51609.28
2024-05-09T17:53:10.816Z,51565.53
2024-05-09T17:55:38.469Z,51577.47
2024-05-09T17:58:06.178Z,51539.69
2024-05-09T18:00:39.193Z,51521.78
2024-05-09T18:03:11.948Z,51476.06
2024-05-09T18:05:42.899Z,51480.03
2024-05-09T18:08:11.212Z,51472.09
2024-05-09T18:10:41.292Z,51436.28
2024-05-09T18:13:09.707Z,51470.09
2024-05-09T18:15:37.836Z,51428.34
2024-05-09T18:18:06.972Z,51450.22
2024-05-09T18:20:42.072Z,51444.25
2024-05-09T18:23:17.740Z,51436.28
2024-05-09T18:25:47.151Z,51406.47
2024-05-09T18:28:15.918Z,51426.34
2024-05-09T18:30:43.392Z,51420.41
2024-05-09T18:33:11.577Z,51412.44
2024-05-09T18:35:40.999Z,51416.41
2024-05-09T18:38:09.787Z,51382.63
2024-05-09T18:40:38.502Z,51390.56
2024-05-09T18:43:08.729Z,51392.56
2024-05-09T18:45:40.000Z,51380.63
2024-05-09T18:48:10.115Z,51404.50
2024-05-09T18:50:40.239Z,51384.59
2024-05-09T18:53:11.413Z,51364.72
2024-05-09T18:55:39.739Z,51344.84
2024-05-09T18:58:07.372Z,51364.72
2024-05-09T19:00:37.938Z,51342.84
2024-05-09T19:03:12.793Z,51356.78
2024-05-09T19:05:43.525Z,51348.81
2024-05-09T19:08:12.055Z,51364.72
2024-05-09T19:10:40.098Z,51356.78
2024-05-09T19:13:13.028Z,51342.84
2024-05-09T19:15:43.761Z,51366.72
2024-05-09T19:18:13.680Z,51334.91
2024-05-09T19:20:41.606Z,51350.81
2024-05-09T19:23:08.767Z,51348.81
2024-05-09T19:25:36.535Z,51324.97
2024-05-09T19:28:05.173Z,51324.97
2024-05-09T19:30:39.430Z,51307.06
2024-05-09T19:33:12.452Z,51324.97
2024-05-09T19:35:40.732Z,51289.19
2024-05-09T19:38:08.341Z,51297.13
2024-05-09T19:40:36.257Z,51322.97
2024-05-09T19:43:05.563Z,51287.19
2024-05-09T19:45:35.545Z,51287.19
2024-05-09T19:48:04.504Z,51269.31
2024-05-09T19:50:40.179Z,51283.22
2024-05-09T19:53:11.850Z,51271.28
2024-05-09T19:55:40.397Z,51289.19
2024-05-09T19:58:10.937Z,51285.19
2024-05-09T20:00:41.740Z,51273.28
2024-05-09T20:03:13.064Z,51269.31
2024-05-09T20:05:44.335Z,51271.28
2024-05-09T20:08:12.260Z,51281.22
2024-05-09T20:10:39.636Z,51287.19
2024-05-09T20:13:08.273Z,51289.19
2024-05-09T20:15:37.090Z,51289.19
2024-05-09T20:18:07.841Z,51273.28
2024-05-09T20:20:39.894Z,51263.34
2024-05-09T20:23:11.552Z,51249.41
2024-05-09T20:25:38.917Z,51275.25
2024-05-09T20:28:07.021Z,51261.34
2024-05-09T20:30:35.435Z,51251.41
2024-05-09T20:33:05.616Z,51291.16
2024-05-09T20:35:34.705Z,51255.38
2024-05-09T20:38:03.412Z,51247.44
2024-05-09T20:40:35.504Z,51259.34
2024-05-09T20:43:10.157Z,51249.41
2024-05-09T20:45:38.131Z,51275.25
2024-05-09T20:48:06.974Z,51255.38
2024-05-09T20:50:39.372Z,51269.31
2024-05-09T20:53:11.752Z,51247.44
2024-05-09T20:55:40.040Z,51255.38
2024-05-09T20:58:07.218Z,51263.34
2024-05-09T21:00:39.669Z,51247.44
2024-05-09T21:03:10.403Z,51263.34
2024-05-09T21:05:37.952Z,51261.34
2024-05-09T21:08:05.772Z,51239.47
2024-05-09T21:10:34.145Z,51287.19
2024-05-09T21:13:03.096Z,51253.41
2024-05-09T21:15:31.512Z,51249.41
2024-05-09T21:17:58.971Z,51253.41
2024-05-09T21:20:31.701Z,51253.41
2024-05-09T21:23:01.903Z,51245.44
2024-05-09T21:25:29.863Z,51225.56
2024-05-09T21:27:57.236Z,51237.50
2024-05-09T21:30:33.158Z,51261.34
2024-05-09T21:33:09.919Z,51237.50
2024-05-09T21:35:38.613Z,51261.34
2024-05-09T21:38:05.923Z,51241.47
2024-05-09T21:40:35.326Z,51219.59
2024-05-09T21:43:05.346Z,51257.38
2024-05-09T21:45:33.716Z,51247.44
2024-05-09T21:48:03.575Z,51253.41
2024-05-09T21:50:37.078Z,51213.63
2024-05-09T21:53:07.929Z,51257.38
2024-05-09T21:55:35.120Z,51227.56
2024-05-09T21:58:02.926Z,51213.63
2024-05-09T22:00:36.172Z,51249.41
2024-05-09T22:03:07.847Z,51243.47
2024-05-09T22:05:36.327Z,51219.59
2024-05-09T22:08:04.014Z,51221.59
2024-05-09T22:10:34.829Z,51257.38
2024-05-09T22:13:05.652Z,51229.53
2024-05-09T22:15:39.791Z,51247.44
2024-05-09T22:18:09.601Z,51241.47
2024-05-09T22:20:43.512Z,51213.63
2024-05-09T22:23:11.443Z,51217.59
2024-05-09T22:25:39.208Z,51251.41
2024-05-09T22:28:07.001Z,51243.47
2024-05-09T22:30:38.123Z,51267.31
2024-05-09T22:33:09.082Z,51229.53
2024-05-09T22:35:37.713Z,51259.34
2024-05-09T22:38:05.525Z,51233.50
2024-05-09T22:40:42.344Z,51235.50
2024-05-09T22:43:23.085Z,51239.47
2024-05-09T22:45:55.399Z,51233.50
2024-05-09T22:48:24.369Z,51231.53
2024-05-09T22:50:52.942Z,51211.66
2024-05-09T22:53:23.880Z,51243.47
2024-05-09T22:55:51.067Z,51223.56
2024-05-09T22:58:18.464Z,51231.53
2024-05-09T23:00:45.724Z,51245.44
2024-05-09T23:03:16.011Z,51213.63
2024-05-09T23:05:43.397Z,51213.63
2024-05-09T23:08:10.955Z,51203.69
2024-05-09T23:10:38.492Z,51219.59
2024-05-09T23:13:09.256Z,51201.72
2024-05-09T23:15:38.356Z,51223.56
2024-05-09T23:18:07.121Z,51207.66
2024-05-09T23:20:38.474Z,51223.56
2024-05-09T23:23:11.848Z,51191.78
2024-05-09T23:25:42.888Z,51201.72
2024-05-09T23:28:13.646Z,51235.50
2024-05-09T23:35:13.722Z,51197.72
2024-05-09T23:37:40.838Z,51205.69
2024-05-09T23:40:09.716Z,51213.63
2024-05-09T23:42:36.906Z,51211.66
2024-05-09T23:45:04.326Z,51201.72
2024-05-09T23:47:31.431Z,51221.59
2024-05-09T23:49:58.488Z,51199.72
2024-05-09T23:52:25.563Z,51225.56
2024-05-09T23:54:52.715Z,51217.59
2024-05-09T23:57:19.807Z,51195.75
2024-05-09T23:59:46.840Z,51201.72
